Aviation Digital Data Service (ADDS)

Output produced by TAFs form (0055 UTC 21 November 2017)
found at http://www.aviationweather.gov/adds/tafs/
 
KCNY 202336Z 2100/2124 33006KT P6SM BKN200